Terminal Aerodrome Forecast
Issued by NWS

Home | Current Version | Previous Version | Text Only | Print | Product List | Glossary On
Versions: 1 2 3 4 5 6 7 8 9 10 11 12 13 14
000
FTUS41 KBTV 312335
TAFMPV
TAF
KMPV 312335Z 0100/0124 20005KT P6SM BKN040
     FM010200 VRB03KT P6SM VCSH BKN060
     FM010500 VRB03KT P6SM BKN025
     FM010600 VRB03KT P6SM BKN015
     FM011400 32005KT P6SM OVC045
     FM011900 33009KT P6SM BKN060=

USA.gov is the U.S. government's official web portal to all federal, state and local government web resources and services.